Time;durP1;ratioP1;P1;durP2;ratioP2;P2;SDS_P1;SDS_P2;PMS_P1;PMS_P2;Temp;Humidity;BMP_temperature;BMP_pressure;BME280_temperature;BME280_humidity;BME280_pressure;Samples;Min_cycle;Max_cycle;Signal;HPM_P1;HPM_P2
2023/09/01 13:52:16;;;;;;;6.20;2.05;;;;;;;22.85;43.01;100689.59;5038330;28;20650;-42
2023/09/01 13:54:43;;;;;;;3.50;2.00;;;;;;;22.29;44.29;100693.94;5041783;28;20064;-42
2023/09/01 13:57:11;;;;;;;5.65;2.10;;;;;;;21.72;45.25;100688.38;5026849;28;20079;-60
2023/09/01 13:59:38;;;;;;;4.90;2.50;;;;;;;21.54;45.09;100684.94;5036346;28;20126;-60
2023/09/01 14:02:05;;;;;;;6.15;2.22;;;;;;;21.44;45.89;100687.75;5031421;28;20063;-60
2023/09/01 14:04:33;;;;;;;6.10;2.35;;;;;;;21.22;46.34;100684.56;5038010;28;20200;-59
2023/09/01 14:07:01;;;;;;;11.18;2.17;;;;;;;21.39;46.49;100690.03;5035018;28;20544;-61
2023/09/01 14:09:29;;;;;;;5.75;2.45;;;;;;;21.44;46.85;100685.91;5035519;28;20815;-61
2023/09/01 14:11:56;;;;;;;7.30;3.30;;;;;;;21.48;46.92;100689.09;5034765;28;20046;-60
2023/09/01 14:14:24;;;;;;;7.60;2.33;;;;;;;21.71;47.39;100686.69;5037830;28;20049;-62
2023/09/01 14:16:51;;;;;;;7.15;2.55;;;;;;;21.56;46.22;100681.09;5035311;28;20041;-61
2023/09/01 14:19:18;;;;;;;7.75;2.30;;;;;;;21.23;46.31;100683.56;5039248;28;20067;-60
2023/09/01 14:21:46;;;;;;;5.93;2.45;;;;;;;21.38;46.84;100681.16;5032833;28;20128;-61
2023/09/01 14:24:13;;;;;;;6.45;2.80;;;;;;;21.89;45.54;100670.50;5033981;28;20187;-60
2023/09/01 14:26:41;;;;;;;4.20;2.10;;;;;;;22.47;45.28;100683.06;5035081;28;20076;-62
2023/09/01 14:29:08;;;;;;;5.97;2.00;;;;;;;21.92;45.44;100676.38;5036889;28;20597;-60
2023/09/01 14:31:36;;;;;;;6.18;2.67;;;;;;;21.93;44.85;100683.44;5044600;28;20029;-59
2023/09/01 14:34:03;;;;;;;4.88;2.53;;;;;;;21.80;45.43;100679.53;5044401;28;20144;-61
2023/09/01 14:36:31;;;;;;;5.97;2.33;;;;;;;21.61;45.58;100676.06;5040906;28;20502;-60
2023/09/01 14:38:59;;;;;;;9.82;2.40;;;;;;;21.39;45.29;100673.97;5038751;28;20076;-60
2023/09/01 14:41:26;;;;;;;7.22;2.22;;;;;;;21.20;46.67;100677.66;5043361;28;20077;-60
2023/09/01 14:43:53;;;;;;;3.53;1.83;;;;;;;21.01;46.80;100692.09;5044788;28;20498;-57
2023/09/01 14:46:21;;;;;;;6.70;2.15;;;;;;;20.90;47.71;100687.84;5042834;28;20048;-60
2023/09/01 14:48:49;;;;;;;9.90;3.17;;;;;;;20.72;47.95;100693.22;5039272;28;20067;-61
2023/09/01 14:51:16;;;;;;;3.53;2.00;;;;;;;20.68;48.33;100694.53;5038986;28;20041;-59
2023/09/01 14:53:44;;;;;;;4.15;2.40;;;;;;;20.73;48.54;100694.06;5042153;28;20161;-60
2023/09/01 14:56:15;;;;;;;7.80;3.22;;;;;;;20.53;49.00;100693.38;5039018;28;20139;-60
2023/09/01 14:58:42;;;;;;;5.82;2.70;;;;;;;20.45;50.17;100688.78;5041242;28;20056;-61
2023/09/01 15:01:10;;;;;;;7.20;2.45;;;;;;;20.39;50.25;100693.88;5043344;28;20055;-61
2023/09/01 15:03:37;;;;;;;4.28;2.60;;;;;;;20.19;50.87;100686.00;5026989;28;20077;-58
2023/09/01 15:06:05;;;;;;;6.72;2.85;;;;;;;20.32;50.73;100685.66;5027305;28;20461;-61
2023/09/01 15:08:32;;;;;;;7.05;2.95;;;;;;;20.31;51.00;100686.66;5025258;28;20141;-60
2023/09/01 15:11:02;;;;;;;5.43;2.45;;;;;;;20.20;51.07;100679.66;5027051;28;20049;-60
2023/09/01 15:13:30;;;;;;;6.55;2.42;;;;;;;20.20;51.46;100690.34;5028147;28;20049;-59
2023/09/01 15:15:57;;;;;;;3.80;2.58;;;;;;;20.01;52.24;100685.16;5026801;28;20053;-61
2023/09/01 15:18:24;;;;;;;4.65;2.53;;;;;;;20.12;52.18;100684.91;5030071;28;20049;-61
2023/09/01 15:21:05;;;;;;;6.07;3.33;;;;;;;20.19;51.78;100687.84;5024810;28;20123;-60
2023/09/01 15:23:33;;;;;;;5.63;1.90;;;;;;;20.29;51.81;100685.94;5032912;28;20156;-61
2023/09/01 15:26:00;;;;;;;4.47;2.42;;;;;;;20.38;51.49;100678.84;5043377;28;20079;-62
2023/09/01 15:28:28;;;;;;;6.15;2.55;;;;;;;20.25;51.78;100676.53;5030719;28;20149;-62
2023/09/01 15:30:55;;;;;;;3.42;2.22;;;;;;;20.34;52.19;100680.97;5029607;28;20101;-62
2023/09/01 15:33:22;;;;;;;12.70;3.85;;;;;;;20.24;52.66;100682.88;5031576;28;20053;-61
2023/09/01 15:35:54;;;;;;;5.55;2.60;;;;;;;20.26;52.66;100682.72;5028826;28;20067;-61
2023/09/01 15:38:21;;;;;;;7.97;2.50;;;;;;;20.26;52.87;100691.56;5025043;28;20057;-60
2023/09/01 15:40:50;;;;;;;7.20;2.83;;;;;;;20.26;52.86;100698.75;5024077;28;20068;-60
2023/09/01 15:43:18;;;;;;;4.40;2.38;;;;;;;20.22;52.61;100695.56;5032920;28;20064;-60
2023/09/01 15:45:46;;;;;;;5.72;2.58;;;;;;;20.06;52.81;100693.56;5034172;28;20506;-64
2023/09/01 15:48:14;;;;;;;8.10;2.15;;;;;;;20.17;53.61;100692.47;5026211;28;20057;-60
2023/09/01 15:50:41;;;;;;;6.72;2.42;;;;;;;20.31;53.63;100700.00;5024176;28;20076;-61
2023/09/01 15:53:13;;;;;;;5.30;2.50;;;;;;;20.17;53.14;100693.34;5031108;28;20056;-60
2023/09/01 15:55:42;;;;;;;10.68;2.47;;;;;;;20.30;53.19;100694.78;5028955;28;20144;-61
2023/09/01 15:58:09;;;;;;;6.70;2.70;;;;;;;20.39;53.69;100692.03;5027667;28;20178;-60
2023/09/01 16:00:37;;;;;;;9.63;3.05;;;;;;;20.47;53.42;100697.50;5028714;28;20136;-60
2023/09/01 16:03:05;;;;;;;6.75;2.35;;;;;;;20.42;53.31;100697.09;5026703;28;20057;-61
2023/09/01 16:05:35;;;;;;;10.85;2.95;;;;;;;20.40;53.70;100690.25;5027502;28;20484;-58
2023/09/01 16:08:02;;;;;;;6.35;2.40;;;;;;;20.37;53.97;100696.72;5030604;28;20121;-62
2023/09/01 16:10:33;;;;;;;5.10;2.65;;;;;;;20.37;54.03;100696.72;5025074;28;20061;-62
2023/09/01 16:13:01;;;;;;;7.30;2.78;;;;;;;20.35;54.27;100705.88;5028147;28;20076;-61
2023/09/01 16:15:28;;;;;;;10.05;4.32;;;;;;;20.19;53.81;100704.72;5027999;28;20286;-62
2023/09/01 16:17:55;;;;;;;7.07;4.05;;;;;;;20.10;54.45;100702.94;5024546;28;20058;-61
2023/09/01 16:20:27;;;;;;;11.13;4.10;;;;;;;19.97;55.31;100694.44;5026710;28;20053;-62
2023/09/01 16:22:55;;;;;;;6.38;3.05;;;;;;;19.88;55.65;100701.53;5028061;28;20261;-62
2023/09/01 16:25:22;;;;;;;4.97;3.20;;;;;;;19.83;55.87;100689.59;5026885;28;20056;-63
2023/09/01 16:27:49;;;;;;;6.82;3.05;;;;;;;19.78;56.09;100695.41;5025979;28;20392;-61
2023/09/01 16:30:18;;;;;;;5.40;2.90;;;;;;;19.77;56.42;100688.38;5029146;28;20065;-64
2023/09/01 16:32:46;;;;;;;10.73;3.38;;;;;;;19.72;56.50;100686.16;5026876;28;20157;-62
2023/09/01 16:35:20;;;;;;;5.72;2.90;;;;;;;19.68;57.25;100684.75;5026173;28;20143;-62
2023/09/01 16:37:51;;;;;;;3.30;2.65;;;;;;;19.57;57.75;100679.56;5026808;28;20071;-63
2023/09/01 16:40:22;;;;;;;6.65;2.78;;;;;;;19.56;57.79;100679.72;5019439;28;20856;-62
2023/09/01 16:42:52;;;;;;;7.53;2.80;;;;;;;19.55;58.16;100689.56;5022059;28;20132;-62
2023/09/01 16:45:20;;;;;;;11.10;3.55;;;;;;;19.55;58.35;100688.72;5013877;28;20360;-61
2023/09/01 16:47:47;;;;;;;5.55;2.80;;;;;;;19.52;58.39;100699.69;5022728;28;20216;-61
2023/09/01 16:50:15;;;;;;;5.93;3.22;;;;;;;19.47;58.44;100698.31;5012007;28;20078;-62
2023/09/01 16:52:42;;;;;;;8.35;4.55;;;;;;;19.41;59.10;100693.56;5012000;28;20135;-62
2023/09/01 16:55:10;;;;;;;7.88;2.70;;;;;;;19.36;59.16;100694.97;5020457;28;20060;-63
2023/09/01 16:57:37;;;;;;;8.90;3.20;;;;;;;19.33;59.10;100698.78;5017006;28;20387;-62
2023/09/01 17:00:06;;;;;;;6.53;2.95;;;;;;;19.27;59.53;100703.84;5023741;28;20068;-61
2023/09/01 17:02:34;;;;;;;5.97;3.25;;;;;;;19.26;59.71;100702.16;5020670;28;20060;-62
2023/09/01 17:05:01;;;;;;;4.85;3.47;;;;;;;19.20;59.75;100706.25;5022592;28;20099;-61
2023/09/01 17:07:28;;;;;;;8.25;3.70;;;;;;;19.16;60.80;100705.69;5021598;28;20498;-62
2023/09/01 17:10:06;;;;;;;5.88;2.85;;;;;;;19.11;61.28;100697.28;5027791;28;20045;-63
2023/09/01 17:12:33;;;;;;;5.40;2.78;;;;;;;19.09;61.67;100704.59;5018398;28;20057;-62
2023/09/01 17:15:01;;;;;;;4.95;3.00;;;;;;;19.05;62.10;100699.66;5023853;28;20549;-61
2023/09/01 17:17:29;;;;;;;10.45;3.60;;;;;;;19.03;61.84;100693.66;5023341;28;20049;-64
2023/09/01 17:19:56;;;;;;;5.30;3.30;;;;;;;18.99;63.38;100693.09;5020492;28;20577;-63
2023/09/01 17:22:24;;;;;;;8.13;2.85;;;;;;;18.96;63.35;100702.22;5021015;28;20124;-63
2023/09/01 17:24:51;;;;;;;9.68;2.95;;;;;;;18.95;63.53;100700.53;5029198;28;20077;-64
2023/09/01 17:27:18;;;;;;;4.85;3.05;;;;;;;18.92;64.19;100695.50;5025107;28;20111;-64
2023/09/01 17:29:45;;;;;;;8.38;4.18;;;;;;;18.89;64.16;100700.25;5024429;28;20132;-61
2023/09/01 17:32:13;;;;;;;8.70;3.55;;;;;;;18.86;64.70;100704.03;5024010;28;20172;-62
2023/09/01 17:34:40;;;;;;;7.57;3.58;;;;;;;18.82;65.04;100710.69;5020712;28;20057;-61
2023/09/01 17:37:07;;;;;;;7.97;3.92;;;;;;;18.79;65.46;100712.78;5025631;28;20184;-61
2023/09/01 17:39:35;;;;;;;7.10;3.90;;;;;;;18.76;65.90;100713.06;5025556;28;20521;-63
2023/09/01 17:42:03;;;;;;;6.35;4.13;;;;;;;18.71;66.58;100711.66;5025601;28;20080;-64
2023/09/01 17:44:30;;;;;;;12.55;5.10;;;;;;;18.67;66.65;100717.38;5025028;28;20137;-61
2023/09/01 17:46:58;;;;;;;8.20;4.18;;;;;;;18.60;66.66;100718.94;5023972;28;20049;-63
2023/09/01 17:49:26;;;;;;;6.65;3.80;;;;;;;18.55;66.90;100723.81;5022559;28;20084;-63
2023/09/01 17:51:56;;;;;;;6.70;3.83;;;;;;;18.48;67.61;100726.22;5025900;28;20049;-61
2023/09/01 17:54:24;;;;;;;6.43;3.65;;;;;;;18.40;67.82;100723.38;5027097;28;20814;-63
2023/09/01 17:56:51;;;;;;;7.70;3.70;;;;;;;18.35;68.32;100723.78;5026852;28;20054;-64
2023/09/01 17:59:19;;;;;;;7.30;3.78;;;;;;;18.32;69.05;100725.88;5023168;28;20053;-63
2023/09/01 18:01:49;;;;;;;7.38;3.65;;;;;;;18.29;69.55;100731.53;5021536;28;20049;-63
2023/09/01 18:04:18;;;;;;;6.50;3.65;;;;;;;18.25;69.62;100727.44;5018519;28;20053;-64
2023/09/01 18:06:46;;;;;;;12.68;4.20;;;;;;;18.22;70.05;100734.72;5002091;28;20080;-64
2023/09/01 18:09:14;;;;;;;9.32;3.58;;;;;;;18.18;70.53;100735.97;5023169;28;20041;-63
2023/09/01 18:11:41;;;;;;;7.90;3.92;;;;;;;18.13;70.85;100743.53;5026194;28;20110;-65
2023/09/01 18:14:09;;;;;;;13.40;3.70;;;;;;;18.10;71.57;100745.63;5024221;28;20041;-64
2023/09/01 18:16:36;;;;;;;12.18;4.45;;;;;;;18.03;71.97;100748.00;4993999;28;20061;-64
2023/09/01 18:19:04;;;;;;;8.93;4.28;;;;;;;17.98;72.48;100749.38;5019433;28;20063;-63
2023/09/01 18:21:33;;;;;;;7.43;4.53;;;;;;;17.93;72.99;100750.63;5027410;28;20072;-64
2023/09/01 18:24:08;;;;;;;7.82;4.05;;;;;;;17.91;73.76;100765.03;5025762;28;20041;-64
2023/09/01 18:26:36;;;;;;;9.53;4.20;;;;;;;17.85;73.77;100760.25;5008967;28;20053;-65
2023/09/01 18:29:03;;;;;;;6.97;3.70;;;;;;;17.81;74.12;100764.16;5023072;28;20671;-60
2023/09/01 18:31:30;;;;;;;8.77;4.72;;;;;;;17.76;74.39;100758.41;5025414;28;20060;-62
2023/09/01 18:34:00;;;;;;;5.43;3.97;;;;;;;17.74;74.67;100753.19;5026573;28;20030;-62
2023/09/01 18:36:29;;;;;;;6.15;3.60;;;;;;;17.70;74.81;100747.28;5024463;28;20081;-63
2023/09/01 18:38:58;;;;;;;8.98;4.45;;;;;;;17.69;74.48;100750.91;5027404;28;20056;-61
2023/09/01 18:41:26;;;;;;;9.32;4.43;;;;;;;17.65;73.81;100749.50;5011864;28;20107;-60
2023/09/01 18:43:56;;;;;;;7.18;3.92;;;;;;;17.62;74.57;100749.75;5028046;28;20136;-63
2023/09/01 18:46:29;;;;;;;6.90;3.72;;;;;;;17.61;74.65;100749.91;5020417;28;20057;-63
2023/09/01 18:49:02;;;;;;;9.07;4.30;;;;;;;17.57;74.80;100753.81;5019568;28;20140;-59
2023/09/01 18:51:30;;;;;;;7.97;3.92;;;;;;;17.54;74.84;100754.06;5025750;28;20068;-59
2023/09/01 18:53:57;;;;;;;7.75;3.90;;;;;;;17.50;75.28;100752.63;5032400;28;20049;-63
2023/09/01 18:56:25;;;;;;;6.72;3.85;;;;;;;17.46;75.45;100752.03;5023956;28;20133;-60
2023/09/01 18:58:53;;;;;;;9.10;4.20;;;;;;;17.42;76.51;100763.94;5030405;28;20657;-62
2023/09/01 19:01:26;;;;;;;7.10;3.63;;;;;;;17.37;77.21;100772.31;5025668;28;20092;-64
2023/09/01 19:03:53;;;;;;;7.65;4.85;;;;;;;17.34;77.10;100767.25;5027056;28;20042;-62
2023/09/01 19:06:24;;;;;;;8.00;3.80;;;;;;;17.32;77.27;100773.66;5027915;28;20305;-63
2023/09/01 19:08:52;;;;;;;8.63;4.38;;;;;;;17.29;77.08;100774.78;5029701;28;20051;-61
2023/09/01 19:11:20;;;;;;;9.60;4.97;;;;;;;17.28;77.13;100777.56;5025620;28;20060;-62
2023/09/01 19:13:54;;;;;;;10.10;5.45;;;;;;;17.24;77.13;100776.97;5027015;28;20083;-63
2023/09/01 19:16:22;;;;;;;6.43;5.13;;;;;;;17.20;76.96;100773.75;5022381;28;20056;-63
2023/09/01 19:18:50;;;;;;;13.35;5.70;;;;;;;17.19;76.54;100779.19;5023391;28;20053;-64
2023/09/01 19:21:22;;;;;;;10.57;5.88;;;;;;;17.19;77.01;100779.19;5019417;28;20049;-64
2023/09/01 19:23:50;;;;;;;6.32;4.95;;;;;;;17.17;76.98;100781.16;5025025;28;20569;-66
2023/09/01 19:26:22;;;;;;;12.38;6.30;;;;;;;17.14;77.17;100784.06;5030754;28;20076;-61
2023/09/01 19:28:50;;;;;;;14.70;5.80;;;;;;;17.11;77.92;100784.28;5037859;28;20045;-65
2023/09/01 19:31:18;;;;;;;12.75;6.43;;;;;;;17.08;78.16;100785.41;5029746;28;20919;-65
2023/09/01 19:33:57;;;;;;;10.20;5.97;;;;;;;17.03;79.74;100795.59;5028908;28;20068;-63
2023/09/01 19:36:27;;;;;;;13.05;6.45;;;;;;;16.96;79.29;100791.75;5028715;28;20120;-65
2023/09/01 19:38:54;;;;;;;14.18;6.50;;;;;;;16.93;79.60;100798.19;5029168;28;20447;-64
2023/09/01 19:41:26;;;;;;;8.40;5.47;;;;;;;16.90;79.14;100802.91;5029306;28;20045;-63
2023/09/01 19:43:59;;;;;;;9.38;5.60;;;;;;;16.86;80.48;100794.31;5025006;28;20157;-63
2023/09/01 19:46:27;;;;;;;11.50;6.50;;;;;;;16.81;82.15;100804.50;5029396;28;20052;-62
2023/09/01 19:48:55;;;;;;;11.25;6.10;;;;;;;16.77;82.89;100807.53;5026650;28;20107;-64
2023/09/01 19:51:23;;;;;;;10.05;5.80;;;;;;;16.73;84.13;100806.09;5029901;28;20145;-64
2023/09/01 19:53:53;;;;;;;8.80;6.53;;;;;;;16.68;84.69;100806.44;5034259;28;20056;-65
2023/09/01 19:56:21;;;;;;;10.82;6.82;;;;;;;16.66;84.74;100813.69;5036431;28;20164;-63
2023/09/01 19:58:59;;;;;;;15.82;6.53;;;;;;;16.63;85.04;100811.28;5029033;28;20058;-64
2023/09/01 20:01:29;;;;;;;8.65;6.55;;;;;;;16.61;85.36;100806.09;5025895;28;20064;-65
2023/09/01 20:03:57;;;;;;;7.78;5.88;;;;;;;16.61;85.42;100813.22;5013168;28;20048;-61
2023/09/01 20:06:26;;;;;;;9.65;5.70;;;;;;;16.59;86.01;100810.69;5012887;28;20132;-63
2023/09/01 20:08:56;;;;;;;13.10;5.15;;;;;;;16.55;86.43;100808.41;5027549;28;20514;-61
2023/09/01 20:11:27;;;;;;;9.55;5.30;;;;;;;16.53;86.21;100807.72;5028711;28;20056;-63
2023/09/01 20:13:55;;;;;;;9.32;5.53;;;;;;;16.50;86.30;100802.63;5031884;28;20576;-60
2023/09/01 20:16:23;;;;;;;9.88;6.28;;;;;;;16.47;86.42;100814.34;5023030;28;20069;-61
2023/09/01 20:18:51;;;;;;;8.68;5.43;;;;;;;16.44;86.75;100815.44;5027414;28;20049;-63
2023/09/01 20:21:18;;;;;;;8.52;5.55;;;;;;;16.42;87.17;100816.53;5029962;28;20084;-62
2023/09/01 20:23:48;;;;;;;10.85;5.72;;;;;;;16.41;86.93;100814.84;5030541;28;20046;-59
2023/09/01 20:26:15;;;;;;;7.80;5.63;;;;;;;16.40;86.72;100821.13;5028781;28;20076;-64
2023/09/01 20:28:43;;;;;;;7.82;5.35;;;;;;;16.38;86.87;100831.03;5026576;28;20147;-60
2023/09/01 20:31:11;;;;;;;8.80;5.63;;;;;;;16.35;86.77;100824.16;5011226;28;20073;-63
2023/09/01 20:33:38;;;;;;;8.82;5.38;;;;;;;16.35;87.67;100828.63;5034521;28;20461;-59
2023/09/01 20:36:05;;;;;;;10.88;5.32;;;;;;;16.34;88.01;100829.56;5024714;28;20063;-63
2023/09/01 20:38:33;;;;;;;7.63;5.68;;;;;;;16.32;88.22;100842.16;5030016;28;20142;-61
2023/09/01 20:41:00;;;;;;;10.93;5.47;;;;;;;16.30;88.48;100836.09;5022224;28;20836;-60
2023/09/01 20:43:28;;;;;;;13.18;7.07;;;;;;;16.26;88.99;100840.81;5034211;28;20581;-61
2023/09/01 20:45:56;;;;;;;12.15;6.10;;;;;;;16.24;89.27;100842.75;5032904;28;20738;-61
2023/09/01 20:48:23;;;;;;;10.57;6.07;;;;;;;16.22;89.65;100841.19;5034455;28;20140;-60
2023/09/01 20:50:50;;;;;;;9.45;6.18;;;;;;;16.18;89.96;100844.09;5038440;28;20053;-63
2023/09/01 20:53:17;;;;;;;9.98;5.72;;;;;;;16.16;90.61;100842.50;5040118;28;20056;-60
2023/09/01 20:55:45;;;;;;;7.07;5.88;;;;;;;16.11;90.88;100839.38;5025953;28;20139;-60
2023/09/01 20:58:13;;;;;;;11.15;6.47;;;;;;;16.07;91.00;100841.41;5030972;28;20630;-62
2023/09/01 21:00:41;;;;;;;9.73;6.85;;;;;;;16.04;91.28;100851.44;5025646;28;20136;-63
2023/09/01 21:03:08;;;;;;;10.80;6.28;;;;;;;16.01;92.17;100857.84;5034738;28;20066;-60
2023/09/01 21:05:35;;;;;;;9.95;6.90;;;;;;;15.95;92.56;100853.84;5034496;28;20144;-57
2023/09/01 21:08:03;;;;;;;11.35;6.82;;;;;;;15.91;92.58;100856.88;5036251;28;20155;-64
2023/09/01 21:10:30;;;;;;;12.48;7.05;;;;;;;15.88;92.80;100854.44;5034207;28;20056;-59
2023/09/01 21:12:58;;;;;;;13.52;7.28;;;;;;;15.84;93.49;100853.81;5034394;28;20128;-58
2023/09/01 21:15:25;;;;;;;8.00;6.32;;;;;;;15.82;93.58;100854.94;5031606;28;20053;-63
2023/09/01 21:17:53;;;;;;;12.50;6.45;;;;;;;15.79;93.62;100865.78;5013981;28;20048;-58
2023/09/01 21:20:21;;;;;;;10.98;6.70;;;;;;;15.76;93.46;100860.69;5025362;28;20140;-62
2023/09/01 21:22:48;;;;;;;12.82;6.97;;;;;;;15.73;93.58;100864.44;5024370;28;20106;-60
2023/09/01 21:25:17;;;;;;;15.00;6.40;;;;;;;15.70;93.65;100865.50;5026645;28;20051;-63
2023/09/01 21:27:44;;;;;;;11.48;7.05;;;;;;;15.69;93.09;100865.63;5035729;28;20053;-60
2023/09/01 21:30:13;;;;;;;10.50;6.93;;;;;;;15.68;93.45;100863.94;5028901;28;21004;-61
2023/09/01 21:32:40;;;;;;;14.60;6.80;;;;;;;15.64;93.44;100862.50;5032522;28;20144;-62
2023/09/01 21:35:08;;;;;;;16.20;6.55;;;;;;;15.60;93.85;100872.47;5030053;28;20140;-61
2023/09/01 21:37:36;;;;;;;13.25;7.80;;;;;;;15.57;94.35;100880.63;5032427;28;20075;-62
2023/09/01 21:40:07;;;;;;;11.07;7.50;;;;;;;15.55;94.71;100868.47;5029800;28;20080;-62
2023/09/01 21:42:36;;;;;;;14.73;7.57;;;;;;;15.52;95.02;100874.84;5038080;28;20161;-60
2023/09/01 21:45:04;;;;;;;11.02;7.05;;;;;;;15.50;95.15;100875.94;5037491;28;20033;-62
2023/09/01 21:47:32;;;;;;;13.32;7.72;;;;;;;15.49;95.81;100875.09;5033202;28;20148;-65
2023/09/01 21:50:00;;;;;;;14.88;6.60;;;;;;;15.43;96.03;100875.53;5034060;28;20397;-58
2023/09/01 21:52:27;;;;;;;12.95;7.65;;;;;;;15.40;96.11;100881.06;5026967;28;20581;-61
2023/09/01 21:54:54;;;;;;;10.52;6.75;;;;;;;15.35;96.59;100881.41;5038206;28;20136;-61
2023/09/01 21:57:22;;;;;;;10.15;6.75;;;;;;;15.31;96.87;100879.97;5027199;28;20049;-61
2023/09/01 21:59:49;;;;;;;12.40;7.60;;;;;;;15.26;97.41;100881.25;5035032;28;20145;-62
2023/09/01 22:02:16;;;;;;;13.30;8.13;;;;;;;15.21;97.80;100886.91;5031349;28;20043;-58
2023/09/01 22:04:44;;;;;;;13.30;7.53;;;;;;;15.17;98.11;100886.31;5035090;28;20119;-63
2023/09/01 22:07:11;;;;;;;11.45;7.60;;;;;;;15.15;98.87;100884.72;5029041;28;20133;-61
2023/09/01 22:09:38;;;;;;;13.35;7.28;;;;;;;15.11;99.82;100884.09;5034403;28;20499;-59
2023/09/01 22:12:06;;;;;;;13.77;7.07;;;;;;;15.07;99.75;100887.91;5036284;28;20083;-60
2023/09/01 22:14:35;;;;;;;10.02;7.07;;;;;;;15.03;100.00;100888.25;5038366;28;20096;-59
2023/09/01 22:17:04;;;;;;;14.60;7.32;;;;;;;15.00;100.00;100899.09;5037144;28;20136;-57
2023/09/01 22:19:32;;;;;;;17.70;8.70;;;;;;;14.98;100.00;100898.34;5044498;28;20053;-61
2023/09/01 22:21:59;;;;;;;13.20;7.65;;;;;;;14.94;100.00;100895.91;5035146;28;20076;-59
2023/09/01 22:24:34;;;;;;;12.50;8.15;;;;;;;14.89;100.00;100900.72;5028359;28;20049;-59
2023/09/01 22:27:02;;;;;;;13.57;8.48;;;;;;;14.85;100.00;100890.44;5032493;28;20049;-60
2023/09/01 22:29:30;;;;;;;13.80;8.68;;;;;;;14.80;100.00;100893.44;5039260;28;20145;-60
2023/09/01 22:32:00;;;;;;;9.68;7.95;;;;;;;14.78;100.00;100895.34;5035011;28;20486;-61
2023/09/01 22:34:27;;;;;;;17.13;8.30;;;;;;;14.75;100.00;100894.72;5036610;28;20076;-61
2023/09/01 22:36:55;;;;;;;16.40;9.75;;;;;;;14.73;100.00;100894.84;5036194;28;20206;-57
2023/09/01 22:39:22;;;;;;;12.05;9.93;;;;;;;14.74;100.00;100895.69;5025552;28;20071;-61
2023/09/01 22:41:49;;;;;;;11.20;9.25;;;;;;;14.75;100.00;100902.69;5027536;28;20129;-59
2023/09/01 22:44:16;;;;;;;11.30;8.32;;;;;;;14.73;100.00;100900.16;5028153;28;20052;-61
2023/09/01 22:46:44;;;;;;;14.63;8.60;;;;;;;14.73;100.00;100901.97;5024501;28;20089;-60
2023/09/01 22:49:11;;;;;;;15.00;8.45;;;;;;;14.67;100.00;100904.06;5034600;28;20137;-62
2023/09/01 22:51:38;;;;;;;14.15;8.68;;;;;;;14.64;100.00;100914.91;5023477;28;20061;-61
2023/09/01 22:54:05;;;;;;;13.57;8.68;;;;;;;14.59;100.00;100911.72;5038111;28;20414;-59
2023/09/01 22:56:33;;;;;;;12.98;8.45;;;;;;;14.55;100.00;100915.56;5027338;28;20046;-58
2023/09/01 22:59:00;;;;;;;17.45;9.13;;;;;;;14.53;100.00;100916.59;5030486;28;20059;-60
2023/09/01 23:01:27;;;;;;;15.10;8.68;;;;;;;14.50;100.00;100922.97;5033087;28;20136;-60
2023/09/01 23:03:54;;;;;;;12.68;8.25;;;;;;;14.50;100.00;100915.03;5038909;28;20081;-59
2023/09/01 23:06:22;;;;;;;12.73;8.90;;;;;;;14.46;100.00;100921.47;5032633;28;20071;-61
2023/09/01 23:08:49;;;;;;;11.93;8.57;;;;;;;14.44;100.00;100921.56;5033931;28;20045;-61
2023/09/01 23:11:19;;;;;;;11.68;8.65;;;;;;;14.40;100.00;100922.72;5039062;28;20140;-62
2023/09/01 23:13:46;;;;;;;14.32;8.98;;;;;;;14.38;100.00;100921.16;5036762;28;20081;-61
2023/09/01 23:16:13;;;;;;;14.40;9.05;;;;;;;14.36;100.00;100923.91;5038787;28;20206;-61
2023/09/01 23:18:41;;;;;;;12.77;9.20;;;;;;;14.35;100.00;100924.84;5039939;28;20128;-60
2023/09/01 23:21:08;;;;;;;15.63;8.73;;;;;;;14.32;100.00;100927.75;5032701;28;20440;-60
2023/09/01 23:23:35;;;;;;;13.43;8.65;;;;;;;14.31;100.00;100919.88;5037450;28;20473;-59
2023/09/01 23:26:03;;;;;;;12.40;10.00;;;;;;;14.29;100.00;100924.44;5028191;28;20050;-61
2023/09/01 23:28:30;;;;;;;15.23;9.95;;;;;;;14.26;100.00;100922.00;5030285;28;20073;-58
2023/09/01 23:30:57;;;;;;;14.80;9.50;;;;;;;14.24;100.00;100927.41;5038883;28;20107;-61
2023/09/01 23:33:25;;;;;;;14.95;9.48;;;;;;;14.21;100.00;100932.91;5040255;28;20083;-61
2023/09/01 23:35:52;;;;;;;14.23;9.82;;;;;;;14.19;100.00;100922.44;5035632;28;20514;-62
2023/09/01 23:38:19;;;;;;;21.20;10.20;;;;;;;14.18;100.00;100934.00;5030522;28;20503;-61
2023/09/01 23:40:46;;;;;;;12.85;9.88;;;;;;;14.16;100.00;100929.75;5029989;28;20532;-61
2023/09/01 23:43:14;;;;;;;14.48;9.57;;;;;;;14.13;100.00;100932.59;5043136;28;20084;-57
2023/09/01 23:45:41;;;;;;;13.10;9.18;;;;;;;14.10;100.00;100933.66;5032580;28;20128;-61
2023/09/01 23:48:08;;;;;;;19.17;10.77;;;;;;;14.09;100.00;100936.41;5030531;28;20053;-60
2023/09/01 23:50:36;;;;;;;14.98;10.63;;;;;;;14.07;100.00;100936.53;5038677;28;20132;-61
2023/09/01 23:53:03;;;;;;;15.25;10.13;;;;;;;14.05;100.00;100941.09;5031194;28;20518;-61
2023/09/01 23:55:30;;;;;;;14.63;10.50;;;;;;;14.02;100.00;100941.28;5041131;28;20455;-57
2023/09/01 23:57:57;;;;;;;14.30;11.02;;;;;;;13.99;100.00;100941.47;5029188;28;20089;-58
